createdAt,value
2022-12-24T00:00:44.083Z,99641.75
2022-12-24T00:01:45.669Z,99622.72
2022-12-24T00:02:47.318Z,99631.78
2022-12-24T00:03:49.137Z,99637.19
2022-12-24T00:04:53.057Z,99643.63
2022-12-24T00:05:58.663Z,99646.88
2022-12-24T00:07:00.111Z,99644.09
2022-12-24T00:08:01.584Z,99651.97
2022-12-24T00:09:03.126Z,99653.63
2022-12-24T00:10:05.108Z,99650.31
2022-12-24T00:11:06.653Z,99653.09
2022-12-24T00:12:08.217Z,99663.16
2022-12-24T00:13:09.692Z,99662.56
2022-12-24T00:14:11.205Z,99670.09
2022-12-24T00:15:12.684Z,99666.66
2022-12-24T00:16:14.272Z,99670.88
2022-12-24T00:17:15.907Z,99670.56
2022-12-24T00:18:17.452Z,99681.47
2022-12-24T00:19:19.040Z,99673.88
2022-12-24T00:20:20.535Z,99685.09
2022-12-24T00:21:22.081Z,99674.72
2022-12-24T00:22:23.605Z,99680.25
2022-12-24T00:23:25.075Z,99679.97
2022-12-24T00:24:26.623Z,99686.41
2022-12-24T00:25:28.096Z,99689.22
2022-12-24T00:26:29.596Z,99693.38
2022-12-24T00:27:31.128Z,99702.59
2022-12-24T00:28:32.601Z,99694.19
2022-12-24T00:29:34.101Z,99697.00
2022-12-24T00:30:35.655Z,99698.66
2022-12-24T00:31:37.119Z,99702.84
2022-12-24T00:32:38.795Z,99708.13
2022-12-24T00:33:40.414Z,99705.31
2022-12-24T00:34:41.927Z,99711.53
2022-12-24T00:35:43.411Z,99713.53
2022-12-24T00:36:44.877Z,99729.81
2022-12-24T00:37:49.326Z,99720.03
2022-12-24T00:38:50.796Z,99720.03
2022-12-24T00:39:52.362Z,99730.13
2022-12-24T00:40:58.319Z,99725.88
2022-12-24T00:41:59.770Z,99735.63
2022-12-24T00:43:01.326Z,99723.13
2022-12-24T00:44:06.242Z,99749.56
2022-12-24T00:45:08.206Z,99747.31
2022-12-24T00:46:09.705Z,99735.28
2022-12-24T00:47:12.343Z,99736.63
2022-12-24T00:48:13.952Z,99729.91
2022-12-24T00:49:15.517Z,99724.28
2022-12-24T00:50:16.960Z,99726.78
2022-12-24T00:51:18.637Z,99729.59
2022-12-24T00:52:20.245Z,99723.22
2022-12-24T00:53:21.790Z,99722.94
2022-12-24T00:54:23.243Z,99729.94
2022-12-24T00:55:24.755Z,99733.34
2022-12-24T00:56:26.243Z,99737.81
2022-12-24T00:57:27.739Z,99733.34
2022-12-24T00:58:29.212Z,99730.88
2022-12-24T00:59:30.706Z,99731.69
2022-12-24T01:00:32.189Z,99729.41
2022-12-24T01:01:35.743Z,99732.53
2022-12-24T01:02:37.567Z,99731.69
2022-12-24T01:03:39.360Z,99739.81
2022-12-24T01:04:59.722Z,99738.97
2022-12-24T01:06:01.822Z,99740.94
2022-12-24T01:07:03.293Z,99748.50
2022-12-24T01:08:04.928Z,99753.28
2022-12-24T01:09:06.432Z,99754.44
2022-12-24T01:10:08.272Z,99750.78
2022-12-24T01:11:09.960Z,99746.00
2022-12-24T01:12:11.482Z,99758.06
2022-12-24T01:13:12.948Z,99754.13
2022-12-24T01:14:14.409Z,99753.69
2022-12-24T01:15:16.046Z,99762.66
2022-12-24T01:16:18.689Z,99751.75
2022-12-24T01:17:20.199Z,99756.31
2022-12-24T01:18:21.764Z,99765.84
2022-12-24T01:19:23.255Z,99767.50
2022-12-24T01:20:27.013Z,99764.41
2022-12-24T01:21:28.498Z,99771.75
2022-12-24T01:22:30.045Z,99773.16
2022-12-24T01:23:31.592Z,99777.09
2022-12-24T01:24:33.077Z,99775.13
2022-12-24T01:25:34.539Z,99780.72
2022-12-24T01:26:36.036Z,99785.75
2022-12-24T01:27:37.660Z,99778.50
2022-12-24T01:28:39.206Z,99777.34
2022-12-24T01:29:41.178Z,99787.44
2022-12-24T01:30:42.926Z,99789.69
2022-12-24T01:31:44.511Z,99787.47
2022-12-24T01:32:46.003Z,99797.84
2022-12-24T01:33:48.431Z,99807.13
2022-12-24T01:34:49.894Z,99807.97
2022-12-24T01:35:51.344Z,99812.75
2022-12-24T01:36:52.867Z,99817.19
2022-12-24T01:37:54.442Z,99819.75
2022-12-24T01:38:55.964Z,99817.78
2022-12-24T01:40:17.410Z,99816.63
2022-12-24T01:41:38.097Z,99819.47
2022-12-24T01:42:58.347Z,99819.47
2022-12-24T01:44:15.580Z,99816.06
2022-12-24T01:45:43.276Z,99822.28
2022-12-24T01:46:44.828Z,99833.19
2022-12-24T01:47:46.420Z,99830.06
2022-12-24T01:48:49.676Z,99828.41
2022-12-24T01:49:52.429Z,99830.06
2022-12-24T01:50:58.452Z,99838.47
2022-12-24T01:52:13.243Z,99841.88
2022-12-24T01:53:14.721Z,99848.63
2022-12-24T01:54:18.311Z,99854.78
2022-12-24T01:55:19.786Z,99846.44
2022-12-24T01:56:21.251Z,99849.75
2022-12-24T01:57:23.667Z,99852.59
2022-12-24T01:58:25.277Z,99851.78
2022-12-24T01:59:26.949Z,99853.75
2022-12-24T02:00:28.442Z,99864.41
2022-12-24T02:01:30.017Z,99863.34
2022-12-24T02:02:33.376Z,99869.53
2022-12-24T02:03:35.222Z,99863.38
2022-12-24T02:04:42.549Z,99865.03
2022-12-24T02:05:47.849Z,99879.03
2022-12-24T02:06:49.333Z,99870.94
2022-12-24T02:07:50.841Z,99874.88
2022-12-24T02:08:52.310Z,99875.41
2022-12-24T02:09:54.202Z,99867.84
2022-12-24T02:10:55.646Z,99866.16
2022-12-24T02:11:57.160Z,99867.00
2022-12-24T02:12:58.638Z,99856.75
2022-12-24T02:14:00.368Z,99858.44
2022-12-24T02:15:01.917Z,99853.38
2022-12-24T02:16:06.502Z,99862.91
2022-12-24T02:17:07.980Z,99862.59
2022-12-24T02:18:09.444Z,99860.03
2022-12-24T02:19:10.880Z,99858.91
2022-12-24T02:20:24.830Z,99860.56
2022-12-24T02:21:28.828Z,99864.03
2022-12-24T02:22:48.988Z,99866.84
2022-12-24T02:24:08.928Z,99860.63
2022-12-24T02:25:22.101Z,99855.56
2022-12-24T02:26:23.604Z,99856.41
2022-12-24T02:27:28.403Z,99858.91
2022-12-24T02:28:56.292Z,99866.47
2022-12-24T02:30:12.831Z,99862.53
2022-12-24T02:31:20.547Z,99868.44
2022-12-24T02:32:25.363Z,99870.09
2022-12-24T02:33:30.988Z,99872.97
2022-12-24T02:34:51.722Z,99866.28
2022-12-24T02:35:55.880Z,99868.25
2022-12-24T02:37:14.373Z,99874.13
2022-12-24T02:38:15.818Z,99872.75
2022-12-24T02:39:19.308Z,99874.50
2022-12-24T02:40:31.645Z,99873.13
2022-12-24T02:41:55.167Z,99878.44
2022-12-24T02:42:58.496Z,99885.44
2022-12-24T02:43:59.944Z,99880.38
2022-12-24T02:45:02.319Z,99881.50
2022-12-24T02:46:07.387Z,99880.91
2022-12-24T02:47:09.064Z,99868.06
2022-12-24T02:48:10.655Z,99876.75
2022-12-24T02:49:12.420Z,99874.78
2022-12-24T02:50:14.412Z,99870.31
2022-12-24T02:51:15.910Z,99876.16
2022-12-24T02:52:33.639Z,99875.31
2022-12-24T02:53:35.224Z,99878.34
2022-12-24T02:54:36.691Z,99882.59
2022-12-24T02:55:45.763Z,99875.31
2022-12-24T02:56:54.124Z,99873.66
2022-12-24T02:58:07.583Z,99879.56
2022-12-24T02:59:09.019Z,99870.84
2022-12-24T03:00:13.949Z,99878.13
2022-12-24T03:01:18.436Z,99878.41
2022-12-24T03:02:24.530Z,99867.53
2022-12-24T03:03:26.137Z,99873.97
2022-12-24T03:04:56.544Z,99887.44
2022-12-24T03:06:05.501Z,99880.47
2022-12-24T03:07:06.931Z,99885.78
2022-12-24T03:08:16.527Z,99891.38
2022-12-24T03:09:24.035Z,99882.72
2022-12-24T03:10:28.069Z,99885.00
2022-12-24T03:11:29.632Z,99885.53
2022-12-24T03:12:35.596Z,99886.91
2022-12-24T03:13:37.212Z,99889.69
2022-12-24T03:14:39.637Z,99890.28
2022-12-24T03:15:41.167Z,99894.75
2022-12-24T03:16:42.756Z,99903.16
2022-12-24T03:17:45.329Z,99896.72
2022-12-24T03:18:47.519Z,99892.78
2022-12-24T03:19:49.090Z,99893.63
2022-12-24T03:20:52.977Z,99892.78
2022-12-24T03:21:57.146Z,99883.31
2022-12-24T03:22:58.613Z,99892.31
2022-12-24T03:24:00.081Z,99895.13
2022-12-24T03:25:01.579Z,99892.31
2022-12-24T03:26:04.792Z,99893.47
2022-12-24T03:27:06.512Z,99897.94
2022-12-24T03:28:08.021Z,99906.09
2022-12-24T03:29:09.656Z,99908.91
2022-12-24T03:30:11.999Z,99917.00
2022-12-24T03:31:13.495Z,99920.38
2022-12-24T03:32:15.032Z,99919.25
2022-12-24T03:33:16.495Z,99921.75
2022-12-24T03:34:18.026Z,99910.25
2022-12-24T03:35:19.610Z,99916.94
2022-12-24T03:36:21.120Z,99920.28
2022-12-24T03:37:22.799Z,99920.28
2022-12-24T03:38:24.283Z,99916.34
2022-12-24T03:39:25.813Z,99928.13
2022-12-24T03:40:27.302Z,99925.31
2022-12-24T03:41:28.806Z,99925.56
2022-12-24T03:42:30.264Z,99917.69
2022-12-24T03:43:31.729Z,99924.13
2022-12-24T03:44:33.325Z,99916.63
2022-12-24T03:45:34.792Z,99923.88
2022-12-24T03:46:36.410Z,99915.19
2022-12-24T03:47:37.860Z,99909.28
2022-12-24T03:48:39.369Z,99911.25
2022-12-24T03:49:40.973Z,99905.66
2022-12-24T03:50:42.515Z,99904.00
2022-12-24T03:51:43.997Z,99912.41
2022-12-24T03:52:45.452Z,99916.88
2022-12-24T03:53:46.955Z,99920.25
2022-12-24T03:54:48.451Z,99923.06
2022-12-24T03:55:49.955Z,99928.06
2022-12-24T03:56:51.501Z,99924.13
2022-12-24T03:57:52.960Z,99924.13
2022-12-24T03:58:54.426Z,99933.63
2022-12-24T03:59:55.920Z,99930.81
2022-12-24T04:00:57.446Z,99934.72
2022-12-24T04:01:59.254Z,99932.16
2022-12-24T04:03:00.943Z,99927.69
2022-12-24T04:04:02.484Z,99936.38
2022-12-24T04:05:04.107Z,99935.25
2022-12-24T04:06:06.693Z,99937.47
2022-12-24T04:07:08.193Z,99944.78
2022-12-24T04:08:09.669Z,99939.19
2022-12-24T04:09:11.205Z,99938.59
2022-12-24T04:10:12.893Z,99950.88
2022-12-24T04:11:14.933Z,99942.78
2022-12-24T04:12:16.492Z,99946.94
2022-12-24T04:13:17.953Z,99944.16
2022-12-24T04:14:19.482Z,99943.00
2022-12-24T04:15:21.097Z,99936.31
2022-12-24T04:16:22.608Z,99939.94
2022-12-24T04:17:24.098Z,99941.09
2022-12-24T04:18:25.818Z,99938.59
2022-12-24T04:19:27.332Z,99944.78
2022-12-24T04:20:28.794Z,99951.22
2022-12-24T04:21:30.287Z,99942.00
2022-12-24T04:22:32.559Z,99944.63
2022-12-24T04:23:34.408Z,99951.06
2022-12-24T04:24:35.952Z,99957.22
2022-12-24T04:25:37.403Z,99947.13
2022-12-24T04:26:38.886Z,99948.28
2022-12-24T04:27:40.403Z,99946.88
2022-12-24T04:28:42.075Z,99956.09
2022-12-24T04:29:43.561Z,99947.72
2022-12-24T04:30:45.044Z,99952.72
2022-12-24T04:31:46.604Z,99949.69
2022-12-24T04:32:48.071Z,99952.75
2022-12-24T04:33:50.420Z,99943.78
2022-12-24T04:34:51.938Z,99952.75
2022-12-24T04:35:53.454Z,99954.97
2022-12-24T04:36:54.940Z,99942.66
2022-12-24T04:37:56.464Z,99950.75
2022-12-24T04:38:57.969Z,99944.56
2022-12-24T04:39:59.496Z,99950.97
2022-12-24T04:41:05.055Z,99953.22
2022-12-24T04:42:06.572Z,99946.47
2022-12-24T04:43:08.044Z,99947.66
2022-12-24T04:44:09.677Z,99942.66
2022-12-24T04:45:11.780Z,99938.19
2022-12-24T04:46:19.872Z,99947.97
2022-12-24T04:47:21.416Z,99952.72
2022-12-24T04:48:22.902Z,99960.28
2022-12-24T04:49:24.480Z,99952.97
2022-12-24T04:50:26.044Z,99950.41
2022-12-24T04:51:27.624Z,99954.63
2022-12-24T04:52:29.223Z,99954.88
2022-12-24T04:53:31.056Z,99957.91
2022-12-24T04:54:32.575Z,99956.28
2022-12-24T04:55:34.058Z,99952.34
2022-12-24T04:56:35.649Z,99949.81
2022-12-24T04:57:37.943Z,99945.63
2022-12-24T04:58:39.417Z,99951.25
2022-12-24T04:59:40.994Z,99943.69
2022-12-24T05:00:42.510Z,99937.25
2022-12-24T05:01:44.127Z,99940.31
2022-12-24T05:02:45.798Z,99938.66
2022-12-24T05:03:47.359Z,99943.41
2022-12-24T05:04:48.880Z,99938.09
2022-12-24T05:05:50.396Z,99933.06
2022-12-24T05:06:51.874Z,99933.31
2022-12-24T05:07:53.938Z,99933.59
2022-12-24T05:08:55.890Z,99931.09
2022-12-24T05:09:57.405Z,99925.22
2022-12-24T05:10:58.929Z,99931.09
2022-12-24T05:12:00.723Z,99929.97
2022-12-24T05:13:02.189Z,99934.72
2022-12-24T05:14:03.797Z,99932.75
2022-12-24T05:15:05.548Z,99932.22
2022-12-24T05:16:07.327Z,99943.97
2022-12-24T05:17:08.847Z,99943.38
2022-12-24T05:18:10.461Z,99943.91
2022-12-24T05:19:11.941Z,99951.47
2022-12-24T05:20:13.448Z,99953.44
2022-12-24T05:21:16.302Z,99948.72
2022-12-24T05:22:36.490Z,99953.22
2022-12-24T05:23:56.487Z,99951.00
2022-12-24T05:25:16.387Z,99950.41
2022-12-24T05:26:23.904Z,99954.34
2022-12-24T05:27:25.403Z,99946.47
2022-12-24T05:28:27.029Z,99943.13
2022-12-24T05:29:28.509Z,99940.84
2022-12-24T05:30:30.028Z,99942.00
2022-12-24T05:31:31.875Z,99943.13
2022-12-24T05:32:33.369Z,99940.03
2022-12-24T05:33:34.855Z,99944.78
2022-12-24T05:34:36.333Z,99948.72
2022-12-24T05:35:37.773Z,99953.22
2022-12-24T05:36:39.328Z,99956.59
2022-12-24T05:37:40.826Z,99964.41
2022-12-24T05:38:42.421Z,99963.56
2022-12-24T05:39:43.919Z,99977.81
2022-12-24T05:40:46.275Z,99976.13
2022-12-24T05:41:47.863Z,99969.09
2022-12-24T05:42:50.142Z,99973.28
2022-12-24T05:43:51.607Z,99971.63
2022-12-24T05:44:53.107Z,99961.84
2022-12-24T05:45:58.890Z,99962.97
2022-12-24T05:47:00.396Z,99963.81
2022-12-24T05:48:01.928Z,99970.53
2022-12-24T05:49:03.380Z,99966.06
2022-12-24T05:50:05.120Z,99969.09
2022-12-24T05:51:07.280Z,99968.28
2022-12-24T05:52:08.784Z,99975.53
2022-12-24T05:53:10.241Z,99977.81
2022-12-24T05:54:11.707Z,99972.78
2022-12-24T05:55:13.194Z,99974.47
2022-12-24T05:56:15.798Z,99963.81
2022-12-24T05:57:17.271Z,99977.50
2022-12-24T05:58:18.778Z,99970.25
2022-12-24T05:59:20.269Z,99957.13
2022-12-24T06:00:21.804Z,99964.41
2022-12-24T06:01:23.592Z,99964.41
2022-12-24T06:02:25.135Z,99977.28
2022-12-24T06:03:26.851Z,99979.81
2022-12-24T06:04:29.190Z,99982.34
2022-12-24T06:05:30.985Z,99969.53
2022-12-24T06:06:32.702Z,99979.06
2022-12-24T06:07:34.397Z,99982.69
2022-12-24T06:08:36.040Z,99974.00
2022-12-24T06:09:37.553Z,99980.13
2022-12-24T06:10:39.051Z,99984.59
2022-12-24T06:11:40.491Z,99987.66
2022-12-24T06:12:41.976Z,99987.94
2022-12-24T06:13:44.102Z,99985.69
2022-12-24T06:14:45.624Z,99992.72
2022-12-24T06:15:47.097Z,99982.63
2022-12-24T06:16:48.563Z,99984.06
2022-12-24T06:17:50.107Z,100000.56
2022-12-24T06:18:51.650Z,99998.59
2022-12-24T06:19:53.119Z,100014.81
2022-12-24T06:20:56.827Z,100012.84
2022-12-24T06:21:58.296Z,100009.50
2022-12-24T06:22:59.757Z,100010.09
2022-12-24T06:24:01.331Z,100013.16
2022-12-24T06:25:02.828Z,100020.16
2022-12-24T06:26:04.606Z,100014.28
2022-12-24T06:27:06.519Z,100013.16
2022-12-24T06:28:08.032Z,100024.34
2022-12-24T06:29:10.283Z,100024.38
2022-12-24T06:30:12.057Z,100020.75
2022-12-24T06:31:14.480Z,100022.19
2022-12-24T06:32:16.013Z,100009.91
2022-12-24T06:33:18.284Z,100013.53
2022-12-24T06:34:19.825Z,100016.63
2022-12-24T06:35:21.316Z,100018.34
2022-12-24T06:36:23.300Z,100023.94
2022-12-24T06:37:24.786Z,100018.91
2022-12-24T06:38:26.245Z,100026.16
2022-12-24T06:39:27.722Z,100023.38
2022-12-24T06:40:29.242Z,100027.63
2022-12-24T06:41:30.769Z,100034.63
2022-12-24T06:42:32.266Z,100025.94
2022-12-24T06:43:34.780Z,100036.31
2022-12-24T06:44:36.292Z,100041.63
2022-12-24T06:45:37.831Z,100037.44
2022-12-24T06:46:39.325Z,100038.03
2022-12-24T06:47:40.879Z,100039.69
2022-12-24T06:48:43.096Z,100035.22
2022-12-24T06:49:44.569Z,100040.53
2022-12-24T06:50:46.738Z,100030.41
2022-12-24T06:51:48.247Z,100041.63
2022-12-24T06:52:49.808Z,100034.34
2022-12-24T06:53:51.270Z,100031.25
2022-12-24T06:54:52.807Z,100029.59
2022-12-24T06:56:00.597Z,100039.09
2022-12-24T06:57:02.096Z,100034.97
2022-12-24T06:58:03.676Z,100038.31
2022-12-24T06:59:05.793Z,100030.78
2022-12-24T07:00:08.064Z,100046.16
2022-12-24T07:01:10.836Z,100043.66
2022-12-24T07:02:12.587Z,100040.88
2022-12-24T07:03:14.125Z,100047.03
2022-12-24T07:04:20.173Z,100058.22
2022-12-24T07:05:22.281Z,100059.63
2022-12-24T07:06:27.272Z,100056.00
2022-12-24T07:07:28.733Z,100054.59
2022-12-24T07:08:33.499Z,100056.50
2022-12-24T07:09:35.001Z,100063.22
2022-12-24T07:10:36.506Z,100053.44
2022-12-24T07:11:38.001Z,100054.84
2022-12-24T07:12:39.460Z,100053.16
2022-12-24T07:13:40.916Z,100059.34
2022-12-24T07:14:42.452Z,100012.97
2022-12-24T07:15:44.194Z,100042.84
2022-12-24T07:16:45.835Z,100051.81
2022-12-24T07:17:47.530Z,100057.13
2022-12-24T07:18:49.059Z,100059.38
2022-12-24T07:19:50.521Z,100057.69
2022-12-24T07:20:52.064Z,100057.16
2022-12-24T07:21:53.569Z,100057.97
2022-12-24T07:22:55.076Z,100063.56
2022-12-24T07:23:56.575Z,100067.78
2022-12-24T07:24:58.082Z,100067.22
2022-12-24T07:26:03.043Z,100057.13
2022-12-24T07:27:04.524Z,100067.47
2022-12-24T07:28:06.062Z,100065.25
2022-12-24T07:29:07.572Z,100057.69
2022-12-24T07:30:09.362Z,100061.66
2022-12-24T07:31:10.992Z,100065.53
2022-12-24T07:32:12.466Z,100074.19
2022-12-24T07:33:13.959Z,100065.53
2022-12-24T07:34:15.665Z,100072.25
2022-12-24T07:35:17.299Z,100068.31
2022-12-24T07:36:19.709Z,100062.72
2022-12-24T07:37:21.154Z,100069.16
2022-12-24T07:38:22.640Z,100072.81
2022-12-24T07:39:24.148Z,100059.66
2022-12-24T07:40:25.726Z,100072.22
2022-12-24T07:41:27.238Z,100070.28
2022-12-24T07:42:28.721Z,100071.66
2022-12-24T07:43:30.328Z,100064.34
2022-12-24T07:44:31.819Z,100069.38
2022-12-24T07:45:33.277Z,100071.88
2022-12-24T07:46:35.067Z,100077.22
2022-12-24T07:47:36.792Z,100069.66
2022-12-24T07:48:38.282Z,100081.13
2022-12-24T07:49:39.857Z,100089.50
2022-12-24T07:50:41.613Z,100084.75
2022-12-24T07:51:43.078Z,100086.16
2022-12-24T07:52:44.566Z,100090.63
2022-12-24T07:53:47.994Z,100080.56
2022-12-24T07:54:49.537Z,100082.53
2022-12-24T07:55:51.059Z,100097.91
2022-12-24T07:56:52.546Z,100097.66
2022-12-24T07:57:54.039Z,100094.28
2022-12-24T07:58:55.532Z,100095.09
2022-12-24T07:59:57.036Z,100099.56
2022-12-24T08:00:58.701Z,100110.78
2022-12-24T08:02:00.426Z,100106.31
2022-12-24T08:03:02.246Z,100092.88
2022-12-24T08:04:03.831Z,100112.47
2022-12-24T08:05:05.557Z,100100.44
2022-12-24T08:06:07.181Z,100110.50
2022-12-24T08:07:08.645Z,100125.06
2022-12-24T08:08:10.150Z,100116.94
2022-12-24T08:09:11.715Z,100125.06
2022-12-24T08:10:13.181Z,100122.53
2022-12-24T08:11:14.679Z,100131.50
2022-12-24T08:12:16.141Z,100128.66
2022-12-24T08:13:17.860Z,100129.78
2022-12-24T08:14:19.623Z,100129.25
2022-12-24T08:15:21.094Z,100137.63
2022-12-24T08:16:22.657Z,100134.53
2022-12-24T08:17:28.618Z,100142.38
2022-12-24T08:18:33.631Z,100140.97
2022-12-24T08:19:35.108Z,100143.78
2022-12-24T08:20:39.696Z,100131.19
2022-12-24T08:21:41.177Z,100129.25
2022-12-24T08:22:42.807Z,100137.09
2022-12-24T08:23:45.101Z,100131.50
2022-12-24T08:24:47.230Z,100142.72
2022-12-24T08:25:49.138Z,100146.34
2022-12-24T08:26:52.560Z,100140.75
2022-12-24T08:27:54.460Z,100137.69
2022-12-24T08:28:56.645Z,100133.19
2022-12-24T08:29:58.401Z,100129.00
2022-12-24T08:31:00.289Z,100125.06
2022-12-24T08:32:02.085Z,100129.25
2022-12-24T08:33:04.509Z,100130.41
2022-12-24T08:34:06.800Z,100132.91
2022-12-24T08:35:08.640Z,100124.50
2022-12-24T08:36:10.723Z,100134.88
2022-12-24T08:37:12.433Z,100137.38
2022-12-24T08:38:14.003Z,100136.00
2022-12-24T08:39:15.587Z,100136.25
2022-12-24T08:40:17.357Z,100139.03
2022-12-24T08:41:19.504Z,100139.03
2022-12-24T08:42:21.891Z,100139.03
2022-12-24T08:43:25.696Z,100133.97
2022-12-24T08:44:28.568Z,100149.91
2022-12-24T08:45:39.708Z,100128.88
2022-12-24T08:46:42.236Z,100139.22
2022-12-24T08:47:47.013Z,100136.97
2022-12-24T08:48:49.065Z,100141.44
2022-12-24T08:49:50.833Z,100148.69
2022-12-24T08:50:52.824Z,100141.94
2022-12-24T08:51:55.048Z,100139.16
2022-12-24T08:52:57.634Z,100148.38
2022-12-24T08:54:00.480Z,100146.94
2022-12-24T08:55:03.177Z,100136.00
2022-12-24T08:56:06.587Z,100130.41
2022-12-24T08:57:08.758Z,100139.66
2022-12-24T08:58:11.447Z,100139.66
2022-12-24T08:59:13.287Z,100140.50
2022-12-24T09:00:16.311Z,100125.66
2022-12-24T09:01:18.865Z,100135.97
2022-12-24T09:02:21.727Z,100130.66
2022-12-24T09:08:35.009Z,100142.38
2022-12-24T09:09:38.285Z,100139.53
2022-12-24T09:10:40.696Z,100152.38
2022-12-24T09:11:42.315Z,100147.59
2022-12-24T09:12:46.208Z,100156.50
2022-12-24T09:13:47.819Z,100152.22
2022-12-24T09:14:50.781Z,100153.53
2022-12-24T09:37:27.313Z,100198.28
2022-12-24T09:41:08.621Z,100191.75
2022-12-24T09:42:21.075Z,100224.03
2022-12-24T09:43:51.661Z,100208.66
2022-12-24T09:45:02.140Z,100204.38
2022-12-24T09:46:10.611Z,100207.13
2022-12-24T09:47:32.664Z,100195.56
2022-12-24T09:48:35.323Z,100212.91
2022-12-24T09:49:41.006Z,100206.97
2022-12-24T09:50:52.935Z,100214.22
2022-12-24T09:51:57.274Z,100219.22
2022-12-24T09:52:59.112Z,100219.75
2022-12-24T09:54:04.699Z,100222.00
2022-12-24T09:55:13.810Z,100216.69
2022-12-24T09:56:22.785Z,100217.53
2022-12-24T09:57:27.673Z,100222.16
2022-12-24T09:58:34.402Z,100229.44
2022-12-24T09:59:40.511Z,100229.44
2022-12-24T10:00:47.796Z,100235.16
2022-12-24T10:01:52.162Z,100230.66
2022-12-24T10:02:55.076Z,100240.22
2022-12-24T10:03:58.725Z,100232.47
2022-12-24T10:05:02.398Z,100233.41
2022-12-24T10:06:06.579Z,100243.84
2022-12-24T10:07:27.310Z,100239.91
2022-12-24T10:08:52.421Z,100251.13
2022-12-24T10:09:54.146Z,100237.63
2022-12-24T10:10:57.664Z,100238.22
2022-12-24T10:12:11.868Z,100247.19
2022-12-24T10:13:13.562Z,100245.00
2022-12-24T10:14:21.174Z,100250.66
2022-12-24T10:15:26.605Z,100255.19
2022-12-24T10:16:40.580Z,100252.38
2022-12-24T10:17:57.510Z,100260.78
2022-12-24T10:19:05.158Z,100260.78
2022-12-24T10:20:25.471Z,100256.31
2022-12-24T10:21:34.221Z,100254.06
2022-12-24T10:22:39.085Z,100255.13
2022-12-24T10:24:10.241Z,100246.19
2022-12-24T10:25:30.002Z,100256.31
2022-12-24T10:26:41.488Z,100260.78
2022-12-24T10:27:43.708Z,100259.06
2022-12-24T10:29:12.109Z,100255.44
2022-12-24T10:30:17.450Z,100255.13
2022-12-24T10:31:24.169Z,100251.13
2022-12-24T10:33:03.695Z,100253.16
2022-12-24T10:34:06.458Z,100257.31
2022-12-24T10:35:14.464Z,100259.53
2022-12-24T10:36:38.545Z,100259.53
2022-12-24T10:37:40.856Z,100257.81
2022-12-24T10:38:43.032Z,100264.56
2022-12-24T10:39:44.850Z,100262.28
2022-12-24T10:53:42.472Z,100263.72
2022-12-24T10:55:11.901Z,100265.63
2022-12-24T10:56:14.907Z,100263.94
2022-12-24T10:57:24.274Z,100267.28
2022-12-24T11:22:19.304Z,100267.13
2022-12-24T11:34:23.413Z,100257.53
2022-12-24T11:36:44.955Z,100269.91
2022-12-24T11:44:08.918Z,100262.88
2022-12-24T11:45:22.276Z,100253.03
2022-12-24T11:46:37.955Z,100253.59
2022-12-24T11:47:42.972Z,100249.38
2022-12-24T11:57:01.548Z,100246.78
2022-12-24T11:58:14.213Z,100244.50
2022-12-24T12:05:41.307Z,100251.78
2022-12-24T12:06:47.456Z,100249.81
2022-12-24T12:07:52.931Z,100251.22
2022-12-24T12:08:56.412Z,100251.75
2022-12-24T12:10:04.137Z,100252.28
2022-12-24T12:11:09.383Z,100248.34
2022-12-24T12:12:11.107Z,100252.28
2022-12-24T12:13:15.638Z,100253.66
2022-12-24T12:14:21.314Z,100253.38
2022-12-24T12:15:23.790Z,100242.13
2022-12-24T12:17:00.894Z,100256.72
2022-12-24T12:18:06.016Z,100248.84
2022-12-24T12:19:14.787Z,100250.53
2022-12-24T12:20:19.108Z,100248.53
2022-12-24T12:21:21.448Z,100251.94
2022-12-24T12:22:35.177Z,100251.94
2022-12-24T12:23:37.928Z,100248.00
2022-12-24T12:24:41.201Z,100249.69
2022-12-24T12:25:46.036Z,100246.03
2022-12-24T12:26:47.777Z,100255.31
2022-12-24T12:27:50.742Z,100258.94
2022-12-24T12:28:59.202Z,100249.69
2022-12-24T12:30:02.057Z,100254.47
2022-12-24T12:31:11.894Z,100249.69
2022-12-24T12:32:22.394Z,100249.38
2022-12-24T12:33:33.378Z,100245.44
2022-12-24T12:34:39.757Z,100257.22
2022-12-24T12:35:42.572Z,100260.03
2022-12-24T12:36:44.256Z,100252.13
2022-12-24T12:37:49.191Z,100251.00
2022-12-24T12:38:51.707Z,100256.31
2022-12-24T12:39:53.417Z,100259.94
2022-12-24T12:41:10.174Z,100246.75
2022-12-24T12:42:30.163Z,100263.31
2022-12-24T12:43:50.260Z,100255.16
2022-12-24T12:44:55.311Z,100271.19
2022-12-24T12:46:17.217Z,100267.25
2022-12-24T13:10:22.721Z,100270.44
2022-12-24T13:11:24.445Z,100266.50
2022-12-24T13:12:44.415Z,100267.91
2022-12-24T13:14:01.183Z,100271.00
2022-12-24T13:15:03.107Z,100270.16
2022-12-24T13:16:10.671Z,100276.34
2022-12-24T13:17:27.381Z,100272.09
2022-12-24T13:18:31.802Z,100271.81
2022-12-24T13:19:44.228Z,100271.50
2022-12-24T13:20:49.758Z,100264.50
2022-12-24T13:21:51.492Z,100268.19
2022-12-24T13:45:39.088Z,100283.09
2022-12-24T13:46:52.808Z,100271.56
2022-12-24T13:47:57.528Z,100279.44
2022-12-24T13:48:59.193Z,100270.19
2022-12-24T13:50:13.642Z,100276.09
2022-12-24T13:51:19.875Z,100274.13
2022-12-24T13:52:21.600Z,100280.88
2022-12-24T13:53:26.717Z,100268.81
2022-12-24T13:54:28.902Z,100280.03
2022-12-24T13:55:30.665Z,100282.00
2022-12-24T13:56:32.555Z,100282.00
2022-12-24T13:57:36.895Z,100280.03
2022-12-24T13:58:42.109Z,100280.03
2022-12-24T13:59:45.053Z,100283.44
2022-12-24T14:01:07.379Z,100285.69
2022-12-24T14:02:18.259Z,100284.53
2022-12-24T14:03:34.059Z,100292.44
2022-12-24T14:04:36.471Z,100286.88
2022-12-24T14:05:44.006Z,100285.81
2022-12-24T14:06:45.793Z,100297.34
2022-12-24T14:07:48.675Z,100297.63
2022-12-24T14:08:50.459Z,100292.84
2022-12-24T14:09:52.937Z,100295.41
2022-12-24T14:11:04.120Z,100290.94
2022-12-24T14:12:05.831Z,100292.97
2022-12-24T14:13:11.822Z,100301.63
2022-12-24T14:14:21.703Z,100302.19
2022-12-24T14:15:42.084Z,100300.75
2022-12-24T14:16:45.112Z,100303.84
2022-12-24T14:17:47.674Z,100303.25
2022-12-24T14:19:08.275Z,100310.22
2022-12-24T14:20:11.478Z,100303.25
2022-12-24T14:21:15.928Z,100304.38
2022-12-24T14:22:17.712Z,100308.31
2022-12-24T14:23:42.010Z,100295.13
2022-12-24T14:24:44.054Z,100307.41
2022-12-24T14:25:47.033Z,100308.84
2022-12-24T14:26:50.445Z,100300.13
2022-12-24T14:27:52.840Z,100294.81
2022-12-24T14:28:56.352Z,100303.47
2022-12-24T14:29:58.177Z,100302.66
2022-12-24T14:31:00.833Z,100304.91
2022-12-24T14:32:05.709Z,100303.47
2022-12-24T14:33:28.030Z,100300.38
2022-12-24T14:34:29.918Z,100290.59
2022-12-24T14:35:35.721Z,100299.53
2022-12-24T14:36:39.774Z,100292.81
2022-12-24T14:37:46.004Z,100303.72
2022-12-24T14:48:43.293Z,100303.72
2022-12-24T15:15:52.904Z,100324.31
2022-12-24T15:16:56.650Z,100326.28
2022-12-24T15:17:58.754Z,100326.28
2022-12-24T15:19:01.456Z,100331.91
2022-12-24T15:31:56.504Z,100341.44
2022-12-24T15:32:58.329Z,100344.25
2022-12-24T15:34:01.691Z,100340.31
2022-12-24T15:35:04.067Z,100349.03